createdAt,value
2023-05-13T00:00:41.813Z,10.91
2023-05-13T00:03:08.491Z,10.91
2023-05-13T00:05:35.342Z,10.94
2023-05-13T00:08:06.982Z,10.90
2023-05-13T00:10:34.469Z,10.89
2023-05-13T00:13:01.165Z,10.89
2023-05-13T00:15:28.056Z,10.88
2023-05-13T00:17:54.713Z,10.86
2023-05-13T00:20:21.703Z,10.85
2023-05-13T00:22:48.554Z,10.80
2023-05-13T00:25:15.153Z,10.73
2023-05-13T00:27:41.767Z,10.72
2023-05-13T00:30:09.455Z,10.69
2023-05-13T00:32:36.460Z,10.65
2023-05-13T00:35:03.993Z,10.61
2023-05-13T00:37:30.602Z,10.56
2023-05-13T00:39:57.232Z,10.54
2023-05-13T00:42:24.365Z,10.57
2023-05-13T00:44:51.893Z,10.57
2023-05-13T00:47:18.546Z,10.55
2023-05-13T00:49:45.174Z,10.50
2023-05-13T00:52:11.771Z,10.39
2023-05-13T00:54:38.393Z,10.30
2023-05-13T00:57:05.342Z,10.21
2023-05-13T00:59:32.028Z,10.11
2023-05-13T01:02:14.605Z,10.01
2023-05-13T01:05:02.935Z,9.94
2023-05-13T01:07:41.739Z,9.91
2023-05-13T01:10:25.772Z,9.88
2023-05-13T01:12:56.867Z,9.85
2023-05-13T01:15:27.186Z,9.87
2023-05-13T01:17:55.495Z,9.91
2023-05-13T01:20:24.016Z,9.90
2023-05-13T01:22:51.391Z,9.92
2023-05-13T01:25:18.407Z,9.92
2023-05-13T01:27:45.833Z,9.91
2023-05-13T01:30:13.160Z,9.88
2023-05-13T01:32:39.912Z,9.82
2023-05-13T01:35:07.499Z,9.78
2023-05-13T01:37:34.784Z,9.75
2023-05-13T01:40:02.491Z,9.73
2023-05-13T01:42:30.724Z,9.73
2023-05-13T01:44:57.902Z,9.69
2023-05-13T01:47:24.552Z,9.63
2023-05-13T01:49:51.324Z,9.56
2023-05-13T01:52:18.077Z,9.46
2023-05-13T01:54:45.309Z,9.37
2023-05-13T01:57:13.554Z,9.30
2023-05-13T01:59:40.217Z,9.28
2023-05-13T02:02:06.878Z,9.28
2023-05-13T02:04:33.630Z,9.28
2023-05-13T02:07:00.637Z,9.29
2023-05-13T02:09:29.388Z,9.30
2023-05-13T02:11:56.006Z,9.27
2023-05-13T02:14:22.613Z,9.22
2023-05-13T02:16:49.450Z,9.21
2023-05-13T02:19:16.224Z,9.29
2023-05-13T02:21:43.791Z,9.30
2023-05-13T02:24:10.619Z,9.24
2023-05-13T02:26:37.329Z,9.21
2023-05-13T02:29:04.011Z,9.17
2023-05-13T02:31:31.152Z,9.09
2023-05-13T02:33:57.774Z,9.06
2023-05-13T02:36:24.818Z,9.03
2023-05-13T02:38:52.076Z,8.95
2023-05-13T02:41:19.320Z,8.87
2023-05-13T02:43:47.479Z,8.82
2023-05-13T02:46:15.398Z,8.79
2023-05-13T02:48:44.116Z,8.78
2023-05-13T02:51:10.933Z,8.77
2023-05-13T02:53:38.196Z,8.75
2023-05-13T02:56:05.811Z,8.73
2023-05-13T02:58:32.432Z,8.72
2023-05-13T03:00:59.348Z,8.76
2023-05-13T03:03:26.320Z,8.81
2023-05-13T03:05:53.137Z,8.87
2023-05-13T03:08:19.762Z,8.92
2023-05-13T03:10:46.346Z,8.96
2023-05-13T03:13:12.949Z,8.98
2023-05-13T03:15:40.535Z,8.99
2023-05-13T03:18:09.287Z,9.01
2023-05-13T03:20:36.081Z,9.03
2023-05-13T03:23:03.057Z,9.06
2023-05-13T03:25:30.375Z,9.06
2023-05-13T03:27:57.765Z,9.08
2023-05-13T03:30:26.025Z,9.07
2023-05-13T03:33:03.226Z,9.06
2023-05-13T03:35:30.024Z,9.03
2023-05-13T03:37:57.124Z,9.00
2023-05-13T03:40:24.281Z,9.00
2023-05-13T03:42:51.520Z,9.04
2023-05-13T03:45:18.789Z,9.07
2023-05-13T03:47:47.585Z,9.08
2023-05-13T03:50:15.646Z,9.14
2023-05-13T03:52:45.486Z,9.19
2023-05-13T03:55:15.184Z,9.25
2023-05-13T03:57:44.945Z,9.33
2023-05-13T04:00:12.696Z,9.42
2023-05-13T04:02:42.520Z,9.50
2023-05-13T04:05:09.793Z,9.57
2023-05-13T04:07:36.507Z,9.65
2023-05-13T04:10:03.369Z,9.73
2023-05-13T04:12:31.015Z,9.83
2023-05-13T04:14:57.620Z,9.93
2023-05-13T04:17:24.407Z,10.04
2023-05-13T04:19:54.904Z,10.15
2023-05-13T04:22:21.886Z,10.25
2023-05-13T04:24:52.101Z,10.34
2023-05-13T04:27:18.907Z,10.43
2023-05-13T04:29:46.090Z,10.53
2023-05-13T04:32:16.242Z,10.62
2023-05-13T04:34:43.376Z,10.69
2023-05-13T04:37:10.004Z,10.78
2023-05-13T04:39:36.586Z,10.87
2023-05-13T04:42:03.482Z,10.96
2023-05-13T04:44:33.233Z,11.04
2023-05-13T04:47:00.051Z,11.12
2023-05-13T04:49:26.914Z,11.19
2023-05-13T04:51:54.605Z,11.27
2023-05-13T04:54:21.936Z,11.35
2023-05-13T04:56:48.964Z,11.46
2023-05-13T04:59:16.244Z,11.56
2023-05-13T05:01:43.301Z,11.67
2023-05-13T05:04:10.321Z,11.75
2023-05-13T05:06:37.947Z,11.84
2023-05-13T05:09:04.816Z,11.95
2023-05-13T05:11:31.530Z,12.09
2023-05-13T05:13:58.146Z,12.20
2023-05-13T05:16:25.298Z,12.30
2023-05-13T05:18:51.997Z,12.41
2023-05-13T05:21:19.352Z,12.56
2023-05-13T05:23:46.580Z,12.71
2023-05-13T05:26:13.241Z,12.86
2023-05-13T05:28:43.180Z,13.03
2023-05-13T05:31:10.112Z,13.24
2023-05-13T05:33:37.239Z,13.40
2023-05-13T05:36:06.179Z,13.51
2023-05-13T05:38:33.427Z,13.61
2023-05-13T05:41:00.735Z,13.74
2023-05-13T05:43:27.778Z,13.83
2023-05-13T05:45:54.506Z,13.94
2023-05-13T05:48:22.243Z,14.07
2023-05-13T05:50:49.429Z,14.18
2023-05-13T05:53:22.988Z,14.33
2023-05-13T05:55:51.631Z,14.47
2023-05-13T05:58:19.883Z,14.60
2023-05-13T06:00:47.131Z,14.72
2023-05-13T06:03:14.018Z,14.85
2023-05-13T06:05:40.924Z,14.96
2023-05-13T06:08:07.550Z,15.05
2023-05-13T06:10:35.401Z,15.19
2023-05-13T06:13:03.220Z,15.33
2023-05-13T06:15:30.255Z,15.43
2023-05-13T06:17:57.034Z,15.52
2023-05-13T06:20:24.023Z,15.65
2023-05-13T06:22:50.946Z,15.79
2023-05-13T06:25:18.083Z,15.95
2023-05-13T06:27:44.673Z,16.02
2023-05-13T06:30:13.269Z,16.06
2023-05-13T06:32:53.588Z,16.22
2023-05-13T06:35:27.375Z,16.39
2023-05-13T06:37:54.223Z,16.51
2023-05-13T06:40:21.171Z,16.61
2023-05-13T06:42:48.246Z,16.67
2023-05-13T06:45:23.365Z,16.77
2023-05-13T06:47:51.551Z,16.89
2023-05-13T06:50:18.860Z,17.00
2023-05-13T06:52:46.913Z,17.11
2023-05-13T06:55:13.591Z,17.20
2023-05-13T06:57:43.497Z,17.26
2023-05-13T07:00:11.068Z,17.34
2023-05-13T07:02:37.786Z,17.40
2023-05-13T07:05:05.444Z,17.49
2023-05-13T07:07:31.997Z,17.56
2023-05-13T07:09:58.658Z,17.62
2023-05-13T07:12:25.311Z,17.70
2023-05-13T07:14:52.195Z,17.74
2023-05-13T07:17:18.815Z,17.82
2023-05-13T07:19:45.603Z,17.91
2023-05-13T07:22:12.239Z,18.02
2023-05-13T07:24:39.034Z,18.16
2023-05-13T07:27:05.872Z,18.28
2023-05-13T07:29:33.462Z,18.41
2023-05-13T07:32:06.820Z,18.53
2023-05-13T07:34:33.466Z,18.64
2023-05-13T07:37:00.144Z,18.73
2023-05-13T07:39:27.376Z,18.80
2023-05-13T07:41:54.212Z,18.86
2023-05-13T07:44:21.068Z,18.93
2023-05-13T07:46:48.663Z,18.99
2023-05-13T07:49:15.528Z,19.05
2023-05-13T07:51:42.399Z,19.09
2023-05-13T07:54:09.379Z,19.11
2023-05-13T07:56:38.111Z,19.12
2023-05-13T07:59:04.995Z,19.18
2023-05-13T08:01:31.661Z,19.27
2023-05-13T08:03:58.549Z,19.33
2023-05-13T08:06:25.374Z,19.35
2023-05-13T08:08:52.071Z,19.40
2023-05-13T08:11:18.682Z,19.43
2023-05-13T08:13:45.402Z,19.45
2023-05-13T08:16:12.221Z,19.50
2023-05-13T08:18:38.977Z,19.56
2023-05-13T08:21:05.659Z,19.63
2023-05-13T08:23:44.234Z,19.64
2023-05-13T08:26:12.076Z,19.65
2023-05-13T08:28:38.792Z,19.68
2023-05-13T08:31:05.395Z,19.72
2023-05-13T08:33:32.467Z,19.81
2023-05-13T08:35:59.695Z,19.89
2023-05-13T08:38:26.402Z,19.97
2023-05-13T08:40:53.385Z,20.00
2023-05-13T08:43:20.298Z,20.00
2023-05-13T08:45:47.936Z,20.03
2023-05-13T08:48:15.517Z,20.05
2023-05-13T08:50:42.660Z,20.11
2023-05-13T08:53:10.570Z,20.18
2023-05-13T08:55:39.336Z,20.26
2023-05-13T08:58:08.362Z,20.34
2023-05-13T09:00:35.362Z,20.36
2023-05-13T09:03:03.011Z,20.34
2023-05-13T09:05:32.051Z,20.35
2023-05-13T09:07:58.825Z,20.41
2023-05-13T09:10:25.444Z,20.49
2023-05-13T09:12:53.756Z,20.55
2023-05-13T09:15:24.691Z,20.56
2023-05-13T09:18:05.803Z,20.60
2023-05-13T09:20:33.157Z,20.62
2023-05-13T09:23:05.123Z,20.66
2023-05-13T09:25:32.064Z,20.66
2023-05-13T09:28:00.311Z,20.71
2023-05-13T09:30:46.800Z,20.71
2023-05-13T09:33:19.804Z,20.72
2023-05-13T09:35:52.965Z,20.73
2023-05-13T09:38:19.882Z,20.72
2023-05-13T09:40:59.718Z,20.66
2023-05-13T09:43:28.179Z,20.55
2023-05-13T09:46:00.912Z,20.43
2023-05-13T09:48:28.902Z,20.41
2023-05-13T09:50:57.906Z,20.42
2023-05-13T09:53:26.015Z,20.46
2023-05-13T09:55:56.884Z,20.55
2023-05-13T09:58:31.228Z,20.71
2023-05-13T10:00:58.209Z,20.87
2023-05-13T10:03:24.879Z,21.02
2023-05-13T10:05:51.817Z,21.12
2023-05-13T10:08:18.458Z,21.17
2023-05-13T10:10:48.028Z,21.19
2023-05-13T10:13:16.138Z,21.20
2023-05-13T10:15:52.664Z,21.14
2023-05-13T10:18:20.211Z,21.08
2023-05-13T10:20:47.077Z,21.05
2023-05-13T10:23:13.773Z,21.04
2023-05-13T10:25:40.385Z,21.12
2023-05-13T10:28:07.037Z,21.21
2023-05-13T10:30:35.913Z,21.27
2023-05-13T10:33:03.168Z,21.33
2023-05-13T10:35:34.607Z,21.35
2023-05-13T10:38:08.136Z,21.27
2023-05-13T10:40:43.385Z,21.11
2023-05-13T10:43:16.000Z,21.03
2023-05-13T10:45:50.095Z,21.09
2023-05-13T10:48:17.689Z,21.07
2023-05-13T10:50:52.276Z,21.00
2023-05-13T10:53:21.781Z,20.95
2023-05-13T10:55:53.185Z,20.91
2023-05-13T10:58:22.441Z,20.88
2023-05-13T11:00:50.934Z,20.95
2023-05-13T11:03:17.744Z,21.11
2023-05-13T11:05:47.081Z,21.26
2023-05-13T11:08:36.162Z,21.31
2023-05-13T11:11:02.768Z,21.29
2023-05-13T11:13:36.952Z,21.37
2023-05-13T11:16:05.885Z,21.43
2023-05-13T11:18:33.454Z,21.57
2023-05-13T11:21:07.197Z,21.70
2023-05-13T11:23:37.437Z,21.86
2023-05-13T11:26:16.228Z,21.99
2023-05-13T11:29:12.792Z,22.02
2023-05-13T11:31:48.630Z,21.99
2023-05-13T11:34:18.916Z,22.04
2023-05-13T11:36:47.557Z,22.14
2023-05-13T11:39:22.591Z,22.18
2023-05-13T11:41:50.485Z,22.15
2023-05-13T11:44:21.863Z,22.06
2023-05-13T11:47:02.212Z,21.96
2023-05-13T11:49:35.000Z,21.88
2023-05-13T11:52:03.044Z,21.82
2023-05-13T11:54:29.733Z,21.74
2023-05-13T11:56:56.766Z,21.67
2023-05-13T11:59:24.290Z,21.62
2023-05-13T12:02:01.232Z,21.56
2023-05-13T12:04:29.966Z,21.50
2023-05-13T12:06:57.309Z,21.45
2023-05-13T12:09:24.195Z,21.45
2023-05-13T12:11:52.702Z,21.51
2023-05-13T12:14:20.019Z,21.61
2023-05-13T12:16:46.631Z,21.67
2023-05-13T12:19:13.282Z,21.75
2023-05-13T12:21:39.948Z,21.89
2023-05-13T12:24:19.586Z,22.01
2023-05-13T12:26:46.195Z,22.13
2023-05-13T12:29:12.844Z,22.22
2023-05-13T12:31:41.824Z,22.28
2023-05-13T12:34:08.464Z,22.33
2023-05-13T12:36:38.617Z,22.37
2023-05-13T12:39:09.701Z,22.37
2023-05-13T12:41:41.010Z,22.30
2023-05-13T12:44:13.508Z,22.24
2023-05-13T12:46:59.385Z,22.23
2023-05-13T12:49:26.350Z,22.26
2023-05-13T12:51:52.961Z,22.29
2023-05-13T12:54:19.612Z,22.29
2023-05-13T12:56:46.558Z,22.23
2023-05-13T12:59:14.582Z,22.15
2023-05-13T13:01:42.862Z,22.11
2023-05-13T13:04:10.073Z,22.07
2023-05-13T13:06:36.984Z,22.00
2023-05-13T13:09:03.629Z,21.98
2023-05-13T13:11:30.273Z,21.98
2023-05-13T13:13:56.950Z,21.99
2023-05-13T13:16:23.781Z,21.99
2023-05-13T13:18:53.230Z,22.04
2023-05-13T13:21:21.584Z,22.08
2023-05-13T13:23:48.166Z,22.11
2023-05-13T13:26:14.753Z,22.17
2023-05-13T13:28:41.367Z,22.19
2023-05-13T13:31:08.139Z,22.19
2023-05-13T13:33:34.907Z,22.18
2023-05-13T13:36:01.642Z,22.13
2023-05-13T13:38:28.229Z,22.07
2023-05-13T13:40:54.809Z,22.03
2023-05-13T13:43:21.457Z,21.98
2023-05-13T13:45:48.101Z,21.95
2023-05-13T13:48:14.923Z,21.91
2023-05-13T13:50:41.736Z,21.86
2023-05-13T13:53:08.359Z,21.83
2023-05-13T13:55:34.996Z,21.77
2023-05-13T13:58:01.748Z,21.74
2023-05-13T14:00:28.574Z,21.75
2023-05-13T14:02:55.449Z,21.80
2023-05-13T14:05:22.374Z,21.88
2023-05-13T14:07:51.958Z,21.94
2023-05-13T14:10:18.578Z,21.97
2023-05-13T14:12:45.618Z,22.00
2023-05-13T14:15:12.231Z,22.05
2023-05-13T14:17:38.950Z,22.08
2023-05-13T14:20:06.842Z,22.11
2023-05-13T14:22:33.455Z,22.13
2023-05-13T14:25:00.237Z,22.16
2023-05-13T14:27:27.004Z,22.22
2023-05-13T14:29:53.632Z,22.26
2023-05-13T14:32:20.317Z,22.24
2023-05-13T14:34:46.918Z,22.22
2023-05-13T14:37:13.530Z,22.22
2023-05-13T14:39:40.139Z,22.25
2023-05-13T14:42:07.031Z,22.28
2023-05-13T14:44:33.801Z,22.28
2023-05-13T14:47:01.333Z,22.29
2023-05-13T14:49:28.527Z,22.24
2023-05-13T14:51:55.249Z,22.15
2023-05-13T14:54:22.138Z,22.09
2023-05-13T14:56:48.772Z,22.02
2023-05-13T14:59:15.557Z,21.94
2023-05-13T15:01:42.614Z,21.80
2023-05-13T15:04:09.419Z,21.67
2023-05-13T15:06:36.881Z,21.55
2023-05-13T15:09:03.822Z,21.47
2023-05-13T15:11:30.443Z,21.40
2023-05-13T15:13:57.112Z,21.33
2023-05-13T15:16:23.794Z,21.27
2023-05-13T15:18:50.767Z,21.19
2023-05-13T15:21:17.835Z,21.12
2023-05-13T15:23:45.177Z,21.09
2023-05-13T15:26:11.919Z,21.05
2023-05-13T15:28:38.669Z,21.00
2023-05-13T15:31:05.972Z,20.96
2023-05-13T15:33:32.794Z,20.91
2023-05-13T15:36:00.209Z,20.87
2023-05-13T15:38:27.459Z,20.83
2023-05-13T15:40:54.171Z,20.79
2023-05-13T15:43:20.937Z,20.72
2023-05-13T15:45:47.691Z,20.66
2023-05-13T15:48:14.902Z,20.62
2023-05-13T15:50:41.804Z,20.57
2023-05-13T15:53:08.512Z,20.51
2023-05-13T15:55:37.008Z,20.46
2023-05-13T15:58:03.703Z,20.41
2023-05-13T16:00:31.070Z,20.37
2023-05-13T16:02:57.925Z,20.34
2023-05-13T16:05:24.739Z,20.27
2023-05-13T16:07:51.376Z,20.21
2023-05-13T16:10:18.092Z,20.12
2023-05-13T16:12:44.984Z,20.03
2023-05-13T16:15:11.881Z,20.00
2023-05-13T16:17:38.558Z,19.96
2023-05-13T16:20:06.381Z,19.92
2023-05-13T16:22:34.802Z,19.87
2023-05-13T16:25:05.650Z,19.80
2023-05-13T16:27:32.517Z,19.76
2023-05-13T16:29:59.670Z,19.71
2023-05-13T16:32:26.562Z,19.66
2023-05-13T16:34:53.209Z,19.62
2023-05-13T16:37:19.841Z,19.58
2023-05-13T16:39:46.530Z,19.54
2023-05-13T16:42:13.118Z,19.51
2023-05-13T16:44:39.799Z,19.46
2023-05-13T16:47:07.075Z,19.42
2023-05-13T16:49:33.779Z,19.38
2023-05-13T16:52:00.364Z,19.33
2023-05-13T16:54:26.957Z,19.27
2023-05-13T16:56:53.541Z,19.22
2023-05-13T16:59:22.156Z,19.16
2023-05-13T17:01:49.044Z,19.09
2023-05-13T17:04:16.177Z,18.97
2023-05-13T17:06:43.179Z,18.84
2023-05-13T17:09:10.067Z,18.72
2023-05-13T17:11:36.814Z,18.61
2023-05-13T17:14:04.642Z,18.50
2023-05-13T17:16:31.499Z,18.41
2023-05-13T17:18:59.437Z,18.35
2023-05-13T17:21:26.361Z,18.29
2023-05-13T17:23:53.503Z,18.20
2023-05-13T17:26:22.157Z,18.12
2023-05-13T17:28:49.702Z,18.07
2023-05-13T17:31:16.591Z,18.03
2023-05-13T17:33:43.536Z,17.96
2023-05-13T17:36:10.902Z,17.91
2023-05-13T17:38:37.572Z,17.87
2023-05-13T17:41:04.798Z,17.75
2023-05-13T17:43:31.398Z,17.61
2023-05-13T17:45:58.146Z,17.54
2023-05-13T17:48:25.790Z,17.48
2023-05-13T17:50:52.856Z,17.45
2023-05-13T17:53:19.992Z,17.39
2023-05-13T17:55:48.519Z,17.28
2023-05-13T17:58:15.997Z,17.10
2023-05-13T18:00:42.657Z,16.88
2023-05-13T18:03:09.406Z,16.72
2023-05-13T18:05:36.260Z,16.60
2023-05-13T18:08:02.984Z,16.51
2023-05-13T18:10:29.570Z,16.42
2023-05-13T18:12:56.164Z,16.40
2023-05-13T18:15:22.769Z,16.42
2023-05-13T18:17:49.964Z,16.47
2023-05-13T18:20:17.963Z,16.45
2023-05-13T18:22:44.638Z,16.43
2023-05-13T18:25:11.311Z,16.45
2023-05-13T18:27:37.972Z,16.40
2023-05-13T18:30:06.470Z,16.36
2023-05-13T18:32:33.150Z,16.31
2023-05-13T18:34:59.950Z,16.31
2023-05-13T18:37:26.654Z,16.23
2023-05-13T18:39:53.263Z,16.17
2023-05-13T18:42:19.874Z,16.16
2023-05-13T18:44:46.559Z,16.16
2023-05-13T18:47:13.255Z,16.16
2023-05-13T18:49:39.933Z,16.13
2023-05-13T18:52:07.219Z,16.10
2023-05-13T18:54:33.821Z,16.06
2023-05-13T18:57:00.489Z,16.02
2023-05-13T18:59:27.203Z,15.92
2023-05-13T19:01:53.889Z,15.86
2023-05-13T19:04:20.689Z,15.78
2023-05-13T19:06:47.708Z,15.75
2023-05-13T19:09:14.602Z,15.70
2023-05-13T19:11:41.294Z,15.66
2023-05-13T19:14:07.876Z,15.63
2023-05-13T19:16:34.531Z,15.56
2023-05-13T19:19:01.244Z,15.50
2023-05-13T19:21:28.251Z,15.43
2023-05-13T19:23:54.859Z,15.22
2023-05-13T19:26:21.506Z,14.97
2023-05-13T19:28:48.739Z,14.74
2023-05-13T19:31:15.559Z,14.54
2023-05-13T19:33:44.625Z,14.47
2023-05-13T19:36:12.735Z,14.49
2023-05-13T19:38:39.418Z,14.55
2023-05-13T19:41:06.032Z,14.58
2023-05-13T19:43:32.651Z,14.60
2023-05-13T19:45:59.338Z,14.60
2023-05-13T19:48:27.709Z,14.63
2023-05-13T19:50:57.174Z,14.62
2023-05-13T19:53:23.845Z,14.59
2023-05-13T19:55:50.585Z,14.60
2023-05-13T19:58:17.734Z,14.61
2023-05-13T20:00:44.323Z,14.64
2023-05-13T20:03:11.244Z,14.65
2023-05-13T20:05:39.671Z,14.67
2023-05-13T20:08:07.142Z,14.68
2023-05-13T20:10:37.100Z,14.68
2023-05-13T20:13:04.874Z,14.71
2023-05-13T20:15:31.915Z,14.73
2023-05-13T20:17:58.612Z,14.75
2023-05-13T20:20:25.413Z,14.75
2023-05-13T20:22:52.272Z,14.75
2023-05-13T20:25:18.997Z,14.75
2023-05-13T20:27:45.750Z,14.76
2023-05-13T20:30:13.170Z,14.76
2023-05-13T20:32:39.961Z,14.76
2023-05-13T20:35:07.695Z,14.77
2023-05-13T20:37:34.755Z,14.73
2023-05-13T20:40:01.480Z,14.70
2023-05-13T20:42:28.073Z,14.67
2023-05-13T20:44:54.685Z,14.64
2023-05-13T20:47:21.572Z,14.61
2023-05-13T20:49:48.187Z,14.59
2023-05-13T20:52:14.881Z,14.57
2023-05-13T20:54:41.630Z,14.56
2023-05-13T20:57:08.293Z,14.53
2023-05-13T20:59:35.114Z,14.52
2023-05-13T21:02:01.740Z,14.48
2023-05-13T21:04:28.384Z,14.47
2023-05-13T21:06:55.004Z,14.45
2023-05-13T21:09:21.880Z,14.45
2023-05-13T21:11:49.054Z,14.44
2023-05-13T21:14:15.671Z,14.42
2023-05-13T21:16:42.670Z,14.44
2023-05-13T21:19:18.161Z,14.45
2023-05-13T21:21:44.825Z,14.43
2023-05-13T21:24:11.635Z,14.40
2023-05-13T21:26:38.219Z,14.38
2023-05-13T21:29:04.820Z,14.37
2023-05-13T21:31:31.567Z,14.39
2023-05-13T21:33:58.257Z,14.40
2023-05-13T21:36:24.934Z,14.41
2023-05-13T21:38:51.970Z,14.42
2023-05-13T21:41:22.832Z,14.42
2023-05-13T21:43:49.429Z,14.43
2023-05-13T21:46:16.046Z,14.42
2023-05-13T21:48:42.720Z,14.40
2023-05-13T21:51:09.364Z,14.38
2023-05-13T21:53:35.987Z,14.36
2023-05-13T21:56:03.072Z,14.35
2023-05-13T21:58:29.683Z,14.31
2023-05-13T22:00:56.743Z,14.26
2023-05-13T22:03:23.582Z,14.21
2023-05-13T22:05:50.336Z,14.19
2023-05-13T22:08:16.977Z,14.19
2023-05-13T22:10:44.132Z,14.21
2023-05-13T22:13:11.003Z,14.18
2023-05-13T22:15:37.677Z,14.15
2023-05-13T22:18:04.711Z,14.12
2023-05-13T22:20:31.523Z,14.09
2023-05-13T22:22:58.163Z,14.06
2023-05-13T22:25:24.921Z,14.02
2023-05-13T22:27:51.502Z,13.99
2023-05-13T22:30:18.597Z,13.98
2023-05-13T22:32:45.457Z,14.00
2023-05-13T22:35:12.269Z,14.00
2023-05-13T22:37:38.852Z,13.97
2023-05-13T22:40:06.589Z,13.95
2023-05-13T22:42:33.209Z,13.92
2023-05-13T22:44:59.818Z,13.89
2023-05-13T22:47:26.506Z,13.87
2023-05-13T22:49:53.200Z,13.86
2023-05-13T22:52:19.976Z,13.83
2023-05-13T22:54:46.656Z,13.80
2023-05-13T22:57:13.240Z,13.77
2023-05-13T22:59:39.857Z,13.73
2023-05-13T23:02:06.587Z,13.72
2023-05-13T23:04:33.491Z,13.71
2023-05-13T23:07:00.560Z,13.69
2023-05-13T23:09:27.156Z,13.69
2023-05-13T23:11:54.008Z,13.68
2023-05-13T23:14:20.762Z,13.66
2023-05-13T23:16:47.553Z,13.63
2023-05-13T23:19:14.243Z,13.61
2023-05-13T23:21:40.937Z,13.57
2023-05-13T23:24:07.586Z,13.57
2023-05-13T23:26:34.247Z,13.58
2023-05-13T23:29:00.827Z,13.56
2023-05-13T23:31:27.449Z,13.53
2023-05-13T23:33:54.080Z,13.50
2023-05-13T23:36:20.658Z,13.47
2023-05-13T23:38:47.234Z,13.46
2023-05-13T23:41:13.948Z,13.44
2023-05-13T23:43:40.563Z,13.42
2023-05-13T23:46:07.240Z,13.41
2023-05-13T23:48:34.000Z,13.40
2023-05-13T23:51:00.761Z,13.41
2023-05-13T23:53:27.421Z,13.40
2023-05-13T23:55:54.027Z,13.37
2023-05-13T23:58:20.614Z,13.37
